sensor_id;sensor_type;location;lat;lon;timestamp;temperature;humidity
3055;DHT22;1537;52.018;8.542;2023-04-03T00:02:58;3.20;99.90
3055;DHT22;1537;52.018;8.542;2023-04-03T00:06:25;3.10;99.90
3055;DHT22;1537;52.018;8.542;2023-04-03T00:09:49;3.10;99.90
3055;DHT22;1537;52.018;8.542;2023-04-03T00:13:13;3.00;99.90
3055;DHT22;1537;52.018;8.542;2023-04-03T00:16:39;3.00;99.90
3055;DHT22;1537;52.018;8.542;2023-04-03T00:20:05;3.00;99.90
3055;DHT22;1537;52.018;8.542;2023-04-03T00:23:29;2.90;99.90
3055;DHT22;1537;52.018;8.542;2023-04-03T00:26:53;2.90;99.90
3055;DHT22;1537;52.018;8.542;2023-04-03T00:30:19;2.80;99.90
3055;DHT22;1537;52.018;8.542;2023-04-03T00:33:44;2.80;99.90
3055;DHT22;1537;52.018;8.542;2023-04-03T00:37:11;2.80;99.90
3055;DHT22;1537;52.018;8.542;2023-04-03T00:40:38;2.70;99.90
3055;DHT22;1537;52.018;8.542;2023-04-03T00:44:23;2.70;99.90
3055;DHT22;1537;52.018;8.542;2023-04-03T00:48:08;2.70;99.90
3055;DHT22;1537;52.018;8.542;2023-04-03T00:51:38;2.60;99.90
3055;DHT22;1537;52.018;8.542;2023-04-03T00:55:08;2.50;99.90
3055;DHT22;1537;52.018;8.542;2023-04-03T00:58:36;2.50;99.90
3055;DHT22;1537;52.018;8.542;2023-04-03T01:02:01;2.50;99.90
3055;DHT22;1537;52.018;8.542;2023-04-03T01:05:29;2.50;99.90
3055;DHT22;1537;52.018;8.542;2023-04-03T01:08:56;2.40;99.90
3055;DHT22;1537;52.018;8.542;2023-04-03T01:12:22;2.30;99.90
3055;DHT22;1537;52.018;8.542;2023-04-03T01:15:46;2.30;99.90
3055;DHT22;1537;52.018;8.542;2023-04-03T01:19:14;2.30;99.90
3055;DHT22;1537;52.018;8.542;2023-04-03T01:22:43;2.20;99.90
3055;DHT22;1537;52.018;8.542;2023-04-03T01:26:12;2.10;99.90
3055;DHT22;1537;52.018;8.542;2023-04-03T01:29:37;2.20;99.90
3055;DHT22;1537;52.018;8.542;2023-04-03T01:33:02;2.10;99.90
3055;DHT22;1537;52.018;8.542;2023-04-03T01:36:29;2.10;99.90
3055;DHT22;1537;52.018;8.542;2023-04-03T01:39:53;2.00;99.90
3055;DHT22;1537;52.018;8.542;2023-04-03T01:43:22;2.00;99.90
3055;DHT22;1537;52.018;8.542;2023-04-03T01:46:46;2.00;99.90
3055;DHT22;1537;52.018;8.542;2023-04-03T01:50:11;1.90;99.90
3055;DHT22;1537;52.018;8.542;2023-04-03T01:53:36;1.90;99.90
3055;DHT22;1537;52.018;8.542;2023-04-03T01:57:00;1.80;99.90
3055;DHT22;1537;52.018;8.542;2023-04-03T02:00:24;1.80;99.90
3055;DHT22;1537;52.018;8.542;2023-04-03T02:03:50;1.80;99.90
3055;DHT22;1537;52.018;8.542;2023-04-03T02:07:15;1.80;99.90
3055;DHT22;1537;52.018;8.542;2023-04-03T02:10:40;1.70;99.90
3055;DHT22;1537;52.018;8.542;2023-04-03T02:14:04;1.70;99.90
3055;DHT22;1537;52.018;8.542;2023-04-03T02:17:31;1.70;99.90
3055;DHT22;1537;52.018;8.542;2023-04-03T02:20:55;1.70;99.90
3055;DHT22;1537;52.018;8.542;2023-04-03T02:24:20;1.70;99.90
3055;DHT22;1537;52.018;8.542;2023-04-03T02:27:45;1.60;99.90
3055;DHT22;1537;52.018;8.542;2023-04-03T02:31:12;1.60;99.90
3055;DHT22;1537;52.018;8.542;2023-04-03T02:34:38;1.60;99.90
3055;DHT22;1537;52.018;8.542;2023-04-03T02:38:04;1.60;99.90
3055;DHT22;1537;52.018;8.542;2023-04-03T02:41:30;1.50;99.90
3055;DHT22;1537;52.018;8.542;2023-04-03T02:45:00;1.50;99.90
3055;DHT22;1537;52.018;8.542;2023-04-03T02:48:24;1.50;99.90
3055;DHT22;1537;52.018;8.542;2023-04-03T02:51:49;1.50;99.90
3055;DHT22;1537;52.018;8.542;2023-04-03T02:55:14;1.40;99.90
3055;DHT22;1537;52.018;8.542;2023-04-03T02:58:42;1.40;99.90
3055;DHT22;1537;52.018;8.542;2023-04-03T03:02:07;1.40;99.90
3055;DHT22;1537;52.018;8.542;2023-04-03T03:05:34;1.40;99.90
3055;DHT22;1537;52.018;8.542;2023-04-03T03:08:58;1.30;99.90
3055;DHT22;1537;52.018;8.542;2023-04-03T03:12:24;1.30;99.90
3055;DHT22;1537;52.018;8.542;2023-04-03T03:15:49;1.30;99.90
3055;DHT22;1537;52.018;8.542;2023-04-03T03:19:14;1.20;99.90
3055;DHT22;1537;52.018;8.542;2023-04-03T03:22:39;1.20;99.90
3055;DHT22;1537;52.018;8.542;2023-04-03T03:26:07;1.20;99.90
3055;DHT22;1537;52.018;8.542;2023-04-03T03:29:31;1.10;99.90
3055;DHT22;1537;52.018;8.542;2023-04-03T03:33:00;1.00;99.90
3055;DHT22;1537;52.018;8.542;2023-04-03T03:36:25;0.90;99.90
3055;DHT22;1537;52.018;8.542;2023-04-03T03:39:52;0.80;99.90
3055;DHT22;1537;52.018;8.542;2023-04-03T03:43:17;0.80;99.90
3055;DHT22;1537;52.018;8.542;2023-04-03T03:46:50;0.80;99.90
3055;DHT22;1537;52.018;8.542;2023-04-03T03:50:16;0.80;99.90
3055;DHT22;1537;52.018;8.542;2023-04-03T03:53:40;0.70;99.90
3055;DHT22;1537;52.018;8.542;2023-04-03T03:57:09;0.70;99.90
3055;DHT22;1537;52.018;8.542;2023-04-03T04:00:35;0.70;99.90
3055;DHT22;1537;52.018;8.542;2023-04-03T04:03:59;0.60;99.90
3055;DHT22;1537;52.018;8.542;2023-04-03T04:07:28;0.60;99.90
3055;DHT22;1537;52.018;8.542;2023-04-03T04:10:53;0.60;99.90
3055;DHT22;1537;52.018;8.542;2023-04-03T04:14:18;0.70;99.90
3055;DHT22;1537;52.018;8.542;2023-04-03T04:17:43;0.60;99.90
3055;DHT22;1537;52.018;8.542;2023-04-03T04:21:07;0.60;99.90
3055;DHT22;1537;52.018;8.542;2023-04-03T04:24:34;0.60;99.90
3055;DHT22;1537;52.018;8.542;2023-04-03T04:28:01;0.50;99.90
3055;DHT22;1537;52.018;8.542;2023-04-03T04:31:26;0.40;99.90
3055;DHT22;1537;52.018;8.542;2023-04-03T04:34:51;0.30;99.90
3055;DHT22;1537;52.018;8.542;2023-04-03T04:38:15;0.30;99.90
3055;DHT22;1537;52.018;8.542;2023-04-03T04:41:41;0.30;99.90
3055;DHT22;1537;52.018;8.542;2023-04-03T04:45:09;0.30;99.90
3055;DHT22;1537;52.018;8.542;2023-04-03T04:48:40;0.40;99.90
3055;DHT22;1537;52.018;8.542;2023-04-03T04:52:06;0.40;99.90
3055;DHT22;1537;52.018;8.542;2023-04-03T04:55:31;0.30;99.90
3055;DHT22;1537;52.018;8.542;2023-04-03T04:58:57;0.30;99.90
3055;DHT22;1537;52.018;8.542;2023-04-03T05:02:22;0.30;99.90
3055;DHT22;1537;52.018;8.542;2023-04-03T05:05:47;0.30;99.90
3055;DHT22;1537;52.018;8.542;2023-04-03T05:09:11;0.30;99.90
3055;DHT22;1537;52.018;8.542;2023-04-03T05:12:37;0.30;99.90
3055;DHT22;1537;52.018;8.542;2023-04-03T05:16:03;0.30;99.90
3055;DHT22;1537;52.018;8.542;2023-04-03T05:19:28;0.30;99.90
3055;DHT22;1537;52.018;8.542;2023-04-03T05:22:53;0.50;99.90
3055;DHT22;1537;52.018;8.542;2023-04-03T05:26:17;1.10;99.90
3055;DHT22;1537;52.018;8.542;2023-04-03T05:29:43;1.80;99.90
3055;DHT22;1537;52.018;8.542;2023-04-03T05:33:15;2.30;99.90
3055;DHT22;1537;52.018;8.542;2023-04-03T05:36:43;2.70;99.90
3055;DHT22;1537;52.018;8.542;2023-04-03T05:40:09;3.20;99.90
3055;DHT22;1537;52.018;8.542;2023-04-03T05:43:37;3.50;99.90
3055;DHT22;1537;52.018;8.542;2023-04-03T05:47:03;3.70;99.70
3055;DHT22;1537;52.018;8.542;2023-04-03T05:50:29;3.90;98.80
3055;DHT22;1537;52.018;8.542;2023-04-03T05:53:59;4.00;98.40
3055;DHT22;1537;52.018;8.542;2023-04-03T05:57:25;4.00;98.60
3055;DHT22;1537;52.018;8.542;2023-04-03T06:00:49;4.30;97.50
3055;DHT22;1537;52.018;8.542;2023-04-03T06:04:13;4.40;97.00
3055;DHT22;1537;52.018;8.542;2023-04-03T06:07:39;4.40;97.10
3055;DHT22;1537;52.018;8.542;2023-04-03T06:11:05;4.40;96.70
3055;DHT22;1537;52.018;8.542;2023-04-03T06:14:30;4.20;96.80
3055;DHT22;1537;52.018;8.542;2023-04-03T06:17:56;3.40;97.90
3055;DHT22;1537;52.018;8.542;2023-04-03T06:21:20;3.00;99.90
3055;DHT22;1537;52.018;8.542;2023-04-03T06:24:45;3.60;99.30
3055;DHT22;1537;52.018;8.542;2023-04-03T06:28:09;4.00;97.70
3055;DHT22;1537;52.018;8.542;2023-04-03T06:31:33;4.80;96.40
3055;DHT22;1537;52.018;8.542;2023-04-03T06:34:58;5.80;94.60
3055;DHT22;1537;52.018;8.542;2023-04-03T06:38:22;6.40;92.20
3055;DHT22;1537;52.018;8.542;2023-04-03T06:41:47;6.70;90.70
3055;DHT22;1537;52.018;8.542;2023-04-03T06:45:12;6.80;90.20
3055;DHT22;1537;52.018;8.542;2023-04-03T06:48:36;6.60;90.20
3055;DHT22;1537;52.018;8.542;2023-04-03T06:51:59;6.50;90.40
3055;DHT22;1537;52.018;8.542;2023-04-03T06:55:24;7.00;88.50
3055;DHT22;1537;52.018;8.542;2023-04-03T06:58:50;7.30;87.30
3055;DHT22;1537;52.018;8.542;2023-04-03T07:02:13;8.20;84.20
3055;DHT22;1537;52.018;8.542;2023-04-03T07:05:37;9.30;79.30
3055;DHT22;1537;52.018;8.542;2023-04-03T07:09:02;10.20;68.20
3055;DHT22;1537;52.018;8.542;2023-04-03T07:12:26;10.30;64.60
3055;DHT22;1537;52.018;8.542;2023-04-03T07:15:51;10.00;64.60
3055;DHT22;1537;52.018;8.542;2023-04-03T07:19:15;10.10;63.70
3055;DHT22;1537;52.018;8.542;2023-04-03T07:22:40;9.80;65.30
3055;DHT22;1537;52.018;8.542;2023-04-03T07:26:04;9.80;63.50
3055;DHT22;1537;52.018;8.542;2023-04-03T07:29:29;10.20;59.90
3055;DHT22;1537;52.018;8.542;2023-04-03T07:32:54;10.90;56.20
3055;DHT22;1537;52.018;8.542;2023-04-03T07:36:20;10.30;54.70
3055;DHT22;1537;52.018;8.542;2023-04-03T07:39:45;9.90;53.90
3055;DHT22;1537;52.018;8.542;2023-04-03T07:43:08;9.10;54.80
3055;DHT22;1537;52.018;8.542;2023-04-03T07:46:32;8.70;54.30
3055;DHT22;1537;52.018;8.542;2023-04-03T07:49:58;9.40;54.10
3055;DHT22;1537;52.018;8.542;2023-04-03T07:53:21;9.60;53.40
3055;DHT22;1537;52.018;8.542;2023-04-03T07:56:45;9.00;52.60
3055;DHT22;1537;52.018;8.542;2023-04-03T08:00:10;9.00;53.30
3055;DHT22;1537;52.018;8.542;2023-04-03T08:03:34;9.10;52.60
3055;DHT22;1537;52.018;8.542;2023-04-03T08:07:01;8.60;52.20
3055;DHT22;1537;52.018;8.542;2023-04-03T08:10:25;9.30;53.00
3055;DHT22;1537;52.018;8.542;2023-04-03T08:13:48;8.90;52.80
3055;DHT22;1537;52.018;8.542;2023-04-03T08:17:13;10.10;50.90
3055;DHT22;1537;52.018;8.542;2023-04-03T08:20:38;10.30;48.20
3055;DHT22;1537;52.018;8.542;2023-04-03T08:24:04;9.10;50.00
3055;DHT22;1537;52.018;8.542;2023-04-03T08:27:28;9.50;50.40
3055;DHT22;1537;52.018;8.542;2023-04-03T08:30:52;9.30;50.90
3055;DHT22;1537;52.018;8.542;2023-04-03T08:34:17;10.70;48.90
3055;DHT22;1537;52.018;8.542;2023-04-03T08:37:41;11.70;48.80
3055;DHT22;1537;52.018;8.542;2023-04-03T08:41:16;12.20;45.40
3055;DHT22;1537;52.018;8.542;2023-04-03T08:44:47;11.90;44.80
3055;DHT22;1537;52.018;8.542;2023-04-03T08:48:20;11.80;44.40
3055;DHT22;1537;52.018;8.542;2023-04-03T08:51:46;11.80;45.10
3055;DHT22;1537;52.018;8.542;2023-04-03T08:55:22;11.80;45.00
3055;DHT22;1537;52.018;8.542;2023-04-03T08:58:52;11.30;45.70
3055;DHT22;1537;52.018;8.542;2023-04-03T09:02:25;10.80;46.60
3055;DHT22;1537;52.018;8.542;2023-04-03T09:05:53;11.70;45.30
3055;DHT22;1537;52.018;8.542;2023-04-03T09:09:27;11.80;44.90
3055;DHT22;1537;52.018;8.542;2023-04-03T09:13:00;12.10;42.60
3055;DHT22;1537;52.018;8.542;2023-04-03T09:16:32;11.20;45.00
3055;DHT22;1537;52.018;8.542;2023-04-03T09:20:04;10.10;44.00
3055;DHT22;1537;52.018;8.542;2023-04-03T09:23:44;9.60;48.50
3055;DHT22;1537;52.018;8.542;2023-04-03T09:27:10;9.90;47.90
3055;DHT22;1537;52.018;8.542;2023-04-03T09:30:35;10.50;46.60
3055;DHT22;1537;52.018;8.542;2023-04-03T09:34:04;11.30;46.20
3055;DHT22;1537;52.018;8.542;2023-04-03T09:37:39;11.80;43.90
3055;DHT22;1537;52.018;8.542;2023-04-03T09:41:05;11.80;43.60
3055;DHT22;1537;52.018;8.542;2023-04-03T09:44:31;12.30;42.50
3055;DHT22;1537;52.018;8.542;2023-04-03T09:48:07;11.80;42.00
3055;DHT22;1537;52.018;8.542;2023-04-03T09:51:39;12.30;43.10
3055;DHT22;1537;52.018;8.542;2023-04-03T09:55:07;11.40;42.90
3055;DHT22;1537;52.018;8.542;2023-04-03T09:58:33;12.70;43.40
3055;DHT22;1537;52.018;8.542;2023-04-03T10:02:34;11.10;43.00
3055;DHT22;1537;52.018;8.542;2023-04-03T10:05:58;13.30;42.90
3055;DHT22;1537;52.018;8.542;2023-04-03T10:09:25;12.80;41.70
3055;DHT22;1537;52.018;8.542;2023-04-03T10:13:03;13.20;41.00
3055;DHT22;1537;52.018;8.542;2023-04-03T10:16:34;13.60;39.70
3055;DHT22;1537;52.018;8.542;2023-04-03T10:20:03;11.90;39.70
3055;DHT22;1537;52.018;8.542;2023-04-03T10:23:33;10.20;44.80
3055;DHT22;1537;52.018;8.542;2023-04-03T10:27:05;10.90;44.20
3055;DHT22;1537;52.018;8.542;2023-04-03T10:30:36;11.30;44.70
3055;DHT22;1537;52.018;8.542;2023-04-03T10:34:06;10.30;43.90
3055;DHT22;1537;52.018;8.542;2023-04-03T10:37:52;10.10;44.40
3055;DHT22;1537;52.018;8.542;2023-04-03T10:41:27;10.80;43.00
3055;DHT22;1537;52.018;8.542;2023-04-03T10:45:08;10.60;41.70
3055;DHT22;1537;52.018;8.542;2023-04-03T10:48:52;10.70;42.20
3055;DHT22;1537;52.018;8.542;2023-04-03T10:52:22;10.60;42.30
3055;DHT22;1537;52.018;8.542;2023-04-03T10:55:52;10.60;42.20
3055;DHT22;1537;52.018;8.542;2023-04-03T10:59:23;9.60;43.20
3055;DHT22;1537;52.018;8.542;2023-04-03T11:02:52;9.80;44.70
3055;DHT22;1537;52.018;8.542;2023-04-03T11:06:20;9.90;43.50
3055;DHT22;1537;52.018;8.542;2023-04-03T11:09:49;10.00;43.80
3055;DHT22;1537;52.018;8.542;2023-04-03T11:13:15;9.90;44.80
3055;DHT22;1537;52.018;8.542;2023-04-03T11:16:43;9.60;46.10
3055;DHT22;1537;52.018;8.542;2023-04-03T11:20:23;8.90;46.10
3055;DHT22;1537;52.018;8.542;2023-04-03T11:23:51;8.10;47.00
3055;DHT22;1537;52.018;8.542;2023-04-03T11:27:17;7.60;47.50
3055;DHT22;1537;52.018;8.542;2023-04-03T11:30:47;7.20;49.60
3055;DHT22;1537;52.018;8.542;2023-04-03T11:34:24;7.30;50.90
3055;DHT22;1537;52.018;8.542;2023-04-03T11:37:52;7.10;50.90
3055;DHT22;1537;52.018;8.542;2023-04-03T11:41:17;7.10;52.00
3055;DHT22;1537;52.018;8.542;2023-04-03T11:44:47;7.30;52.70
3055;DHT22;1537;52.018;8.542;2023-04-03T11:52:09;7.10;52.70
3055;DHT22;1537;52.018;8.542;2023-04-03T11:55:55;7.40;52.70
3055;DHT22;1537;52.018;8.542;2023-04-03T11:59:23;7.10;54.20
3055;DHT22;1537;52.018;8.542;2023-04-03T12:02:47;7.40;55.00
3055;DHT22;1537;52.018;8.542;2023-04-03T12:06:42;7.40;54.40
3055;DHT22;1537;52.018;8.542;2023-04-03T12:10:17;7.60;54.30
3055;DHT22;1537;52.018;8.542;2023-04-03T12:14:05;7.90;55.00
3055;DHT22;1537;52.018;8.542;2023-04-03T12:17:36;8.10;52.60
3055;DHT22;1537;52.018;8.542;2023-04-03T12:21:00;7.70;53.40
3055;DHT22;1537;52.018;8.542;2023-04-03T12:24:26;7.50;52.90
3055;DHT22;1537;52.018;8.542;2023-04-03T12:27:51;7.60;53.80
3055;DHT22;1537;52.018;8.542;2023-04-03T12:31:17;7.80;52.90
3055;DHT22;1537;52.018;8.542;2023-04-03T12:38:41;7.90;52.50
3055;DHT22;1537;52.018;8.542;2023-04-03T12:42:35;7.70;52.20
3055;DHT22;1537;52.018;8.542;2023-04-03T12:46:11;7.80;52.90
3055;DHT22;1537;52.018;8.542;2023-04-03T12:49:42;7.50;52.20
3055;DHT22;1537;52.018;8.542;2023-04-03T12:53:12;7.60;52.50
3055;DHT22;1537;52.018;8.542;2023-04-03T12:56:36;7.60;49.20
3055;DHT22;1537;52.018;8.542;2023-04-03T13:00:00;7.80;49.50
3055;DHT22;1537;52.018;8.542;2023-04-03T13:03:44;7.80;51.00
3055;DHT22;1537;52.018;8.542;2023-04-03T13:07:21;7.90;50.20
3055;DHT22;1537;52.018;8.542;2023-04-03T13:10:51;7.80;50.50
3055;DHT22;1537;52.018;8.542;2023-04-03T13:14:17;7.90;51.50
3055;DHT22;1537;52.018;8.542;2023-04-03T13:17:42;7.70;51.50
3055;DHT22;1537;52.018;8.542;2023-04-03T13:21:10;7.50;52.80
3055;DHT22;1537;52.018;8.542;2023-04-03T13:24:49;7.40;52.90
3055;DHT22;1537;52.018;8.542;2023-04-03T13:28:17;7.40;53.40
3055;DHT22;1537;52.018;8.542;2023-04-03T13:31:42;7.60;52.80
3055;DHT22;1537;52.018;8.542;2023-04-03T13:35:25;7.30;53.00
3055;DHT22;1537;52.018;8.542;2023-04-03T13:38:58;7.00;51.60
3055;DHT22;1537;52.018;8.542;2023-04-03T13:42:26;7.30;51.30
3055;DHT22;1537;52.018;8.542;2023-04-03T13:46:01;7.60;50.10
3055;DHT22;1537;52.018;8.542;2023-04-03T13:49:33;7.80;50.30
3055;DHT22;1537;52.018;8.542;2023-04-03T13:53:11;7.60;50.40
3055;DHT22;1537;52.018;8.542;2023-04-03T13:56:45;7.50;52.00
3055;DHT22;1537;52.018;8.542;2023-04-03T14:00:28;7.60;50.40
3055;DHT22;1537;52.018;8.542;2023-04-03T14:03:55;7.60;49.80
3055;DHT22;1537;52.018;8.542;2023-04-03T14:07:19;8.00;49.10
3055;DHT22;1537;52.018;8.542;2023-04-03T14:10:43;8.00;48.90
3055;DHT22;1537;52.018;8.542;2023-04-03T14:14:13;7.90;49.60
3055;DHT22;1537;52.018;8.542;2023-04-03T14:17:38;8.00;49.70
3055;DHT22;1537;52.018;8.542;2023-04-03T14:21:02;7.80;49.60
3055;DHT22;1537;52.018;8.542;2023-04-03T14:24:26;8.00;49.70
3055;DHT22;1537;52.018;8.542;2023-04-03T14:27:51;7.70;48.80
3055;DHT22;1537;52.018;8.542;2023-04-03T14:31:16;7.80;50.30
3055;DHT22;1537;52.018;8.542;2023-04-03T14:34:42;8.10;48.50
3055;DHT22;1537;52.018;8.542;2023-04-03T14:38:13;8.00;48.00
3055;DHT22;1537;52.018;8.542;2023-04-03T14:41:44;8.00;49.40
3055;DHT22;1537;52.018;8.542;2023-04-03T14:45:11;7.80;49.20
3055;DHT22;1537;52.018;8.542;2023-04-03T14:48:35;7.70;50.00
3055;DHT22;1537;52.018;8.542;2023-04-03T14:52:00;7.70;49.60
3055;DHT22;1537;52.018;8.542;2023-04-03T14:55:24;7.50;49.80
3055;DHT22;1537;52.018;8.542;2023-04-03T14:58:48;7.50;49.20
3055;DHT22;1537;52.018;8.542;2023-04-03T15:02:26;7.50;49.80
3055;DHT22;1537;52.018;8.542;2023-04-03T15:05:50;7.60;49.90
3055;DHT22;1537;52.018;8.542;2023-04-03T15:09:20;7.70;49.70
3055;DHT22;1537;52.018;8.542;2023-04-03T15:12:45;7.60;49.70
3055;DHT22;1537;52.018;8.542;2023-04-03T15:16:14;7.70;49.80
3055;DHT22;1537;52.018;8.542;2023-04-03T15:19:39;7.70;49.40
3055;DHT22;1537;52.018;8.542;2023-04-03T15:23:03;7.80;49.90
3055;DHT22;1537;52.018;8.542;2023-04-03T15:26:29;7.80;49.40
3055;DHT22;1537;52.018;8.542;2023-04-03T15:29:52;7.60;49.70
3055;DHT22;1537;52.018;8.542;2023-04-03T15:33:16;7.50;50.20
3055;DHT22;1537;52.018;8.542;2023-04-03T15:36:40;7.30;50.70
3055;DHT22;1537;52.018;8.542;2023-04-03T15:40:05;7.50;50.60
3055;DHT22;1537;52.018;8.542;2023-04-03T15:43:31;7.60;49.80
3055;DHT22;1537;52.018;8.542;2023-04-03T15:46:56;7.60;49.60
3055;DHT22;1537;52.018;8.542;2023-04-03T15:50:19;7.70;50.20
3055;DHT22;1537;52.018;8.542;2023-04-03T15:53:44;7.70;50.10
3055;DHT22;1537;52.018;8.542;2023-04-03T15:57:08;7.60;50.60
3055;DHT22;1537;52.018;8.542;2023-04-03T16:00:34;7.70;50.80
3055;DHT22;1537;52.018;8.542;2023-04-03T16:03:59;7.50;51.10
3055;DHT22;1537;52.018;8.542;2023-04-03T16:07:22;7.30;51.20
3055;DHT22;1537;52.018;8.542;2023-04-03T16:10:46;7.20;50.90
3055;DHT22;1537;52.018;8.542;2023-04-03T16:14:10;7.20;51.30
3055;DHT22;1537;52.018;8.542;2023-04-03T16:17:36;7.20;51.20
3055;DHT22;1537;52.018;8.542;2023-04-03T16:21:00;7.10;51.30
3055;DHT22;1537;52.018;8.542;2023-04-03T16:24:24;7.10;51.20
3055;DHT22;1537;52.018;8.542;2023-04-03T16:27:47;7.30;51.10
3055;DHT22;1537;52.018;8.542;2023-04-03T16:31:11;7.40;50.60
3055;DHT22;1537;52.018;8.542;2023-04-03T16:34:36;7.50;50.30
3055;DHT22;1537;52.018;8.542;2023-04-03T16:38:00;7.60;49.80
3055;DHT22;1537;52.018;8.542;2023-04-03T16:41:23;7.60;49.80
3055;DHT22;1537;52.018;8.542;2023-04-03T16:44:47;7.40;50.60
3055;DHT22;1537;52.018;8.542;2023-04-03T16:48:11;7.30;50.20
3055;DHT22;1537;52.018;8.542;2023-04-03T16:51:37;7.20;49.60
3055;DHT22;1537;52.018;8.542;2023-04-03T16:55:01;7.10;50.60
3055;DHT22;1537;52.018;8.542;2023-04-03T16:58:25;7.10;51.10
3055;DHT22;1537;52.018;8.542;2023-04-03T17:01:48;7.00;51.50
3055;DHT22;1537;52.018;8.542;2023-04-03T17:05:12;6.90;51.70
3055;DHT22;1537;52.018;8.542;2023-04-03T17:08:37;7.00;52.40
3055;DHT22;1537;52.018;8.542;2023-04-03T17:12:01;7.00;52.30
3055;DHT22;1537;52.018;8.542;2023-04-03T17:15:25;7.00;52.30
3055;DHT22;1537;52.018;8.542;2023-04-03T17:18:48;6.90;52.80
3055;DHT22;1537;52.018;8.542;2023-04-03T17:22:12;6.90;52.20
3055;DHT22;1537;52.018;8.542;2023-04-03T17:25:39;6.80;52.70
3055;DHT22;1537;52.018;8.542;2023-04-03T17:29:03;6.80;52.70
3055;DHT22;1537;52.018;8.542;2023-04-03T17:32:27;6.70;52.60
3055;DHT22;1537;52.018;8.542;2023-04-03T17:35:50;6.60;52.90
3055;DHT22;1537;52.018;8.542;2023-04-03T17:39:14;6.60;53.30
3055;DHT22;1537;52.018;8.542;2023-04-03T17:42:39;6.50;53.40
3055;DHT22;1537;52.018;8.542;2023-04-03T17:46:04;6.50;54.60
3055;DHT22;1537;52.018;8.542;2023-04-03T17:49:30;6.40;54.80
3055;DHT22;1537;52.018;8.542;2023-04-03T17:52:54;6.40;55.00
3055;DHT22;1537;52.018;8.542;2023-04-03T17:56:20;6.30;54.40
3055;DHT22;1537;52.018;8.542;2023-04-03T17:59:46;6.20;55.00
3055;DHT22;1537;52.018;8.542;2023-04-03T18:03:09;6.10;55.10
3055;DHT22;1537;52.018;8.542;2023-04-03T18:06:37;6.10;55.90
3055;DHT22;1537;52.018;8.542;2023-04-03T18:10:03;6.10;56.70
3055;DHT22;1537;52.018;8.542;2023-04-03T18:13:27;6.10;57.10
3055;DHT22;1537;52.018;8.542;2023-04-03T18:16:53;6.00;57.40
3055;DHT22;1537;52.018;8.542;2023-04-03T18:20:18;6.00;58.00
3055;DHT22;1537;52.018;8.542;2023-04-03T18:23:45;5.90;58.70
3055;DHT22;1537;52.018;8.542;2023-04-03T18:27:11;5.90;59.60
3055;DHT22;1537;52.018;8.542;2023-04-03T18:30:35;5.90;59.90
3055;DHT22;1537;52.018;8.542;2023-04-03T18:34:01;5.80;60.30
3055;DHT22;1537;52.018;8.542;2023-04-03T18:37:24;5.80;62.60
3055;DHT22;1537;52.018;8.542;2023-04-03T18:40:50;5.70;62.10
3055;DHT22;1537;52.018;8.542;2023-04-03T18:44:18;5.70;63.20
3055;DHT22;1537;52.018;8.542;2023-04-03T18:47:42;5.60;63.50
3055;DHT22;1537;52.018;8.542;2023-04-03T18:51:08;5.50;64.60
3055;DHT22;1537;52.018;8.542;2023-04-03T18:54:32;5.50;64.40
3055;DHT22;1537;52.018;8.542;2023-04-03T18:57:58;5.40;65.90
3055;DHT22;1537;52.018;8.542;2023-04-03T19:01:22;5.30;66.60
3055;DHT22;1537;52.018;8.542;2023-04-03T19:04:46;5.20;67.70
3055;DHT22;1537;52.018;8.542;2023-04-03T19:08:11;5.20;68.70
3055;DHT22;1537;52.018;8.542;2023-04-03T19:11:36;5.10;69.50
3055;DHT22;1537;52.018;8.542;2023-04-03T19:14:59;5.10;70.70
3055;DHT22;1537;52.018;8.542;2023-04-03T19:18:23;5.00;71.70
3055;DHT22;1537;52.018;8.542;2023-04-03T19:21:46;5.00;73.10
3055;DHT22;1537;52.018;8.542;2023-04-03T19:25:11;4.90;73.30
3055;DHT22;1537;52.018;8.542;2023-04-03T19:28:35;4.90;74.40
3055;DHT22;1537;52.018;8.542;2023-04-03T19:31:59;4.80;75.70
3055;DHT22;1537;52.018;8.542;2023-04-03T19:35:23;4.80;76.50
3055;DHT22;1537;52.018;8.542;2023-04-03T19:38:47;4.70;77.40
3055;DHT22;1537;52.018;8.542;2023-04-03T19:42:12;4.60;78.20
3055;DHT22;1537;52.018;8.542;2023-04-03T19:45:36;4.60;79.20
3055;DHT22;1537;52.018;8.542;2023-04-03T19:48:59;4.60;80.20
3055;DHT22;1537;52.018;8.542;2023-04-03T19:52:23;4.60;80.70
3055;DHT22;1537;52.018;8.542;2023-04-03T19:55:47;4.50;81.20
3055;DHT22;1537;52.018;8.542;2023-04-03T19:59:13;4.40;81.50
3055;DHT22;1537;52.018;8.542;2023-04-03T20:02:37;4.40;82.40
3055;DHT22;1537;52.018;8.542;2023-04-03T20:06:01;4.30;82.80
3055;DHT22;1537;52.018;8.542;2023-04-03T20:09:26;4.30;83.60
3055;DHT22;1537;52.018;8.542;2023-04-03T20:12:50;4.20;84.20
3055;DHT22;1537;52.018;8.542;2023-04-03T20:16:15;4.20;84.50
3055;DHT22;1537;52.018;8.542;2023-04-03T20:19:39;4.20;85.90
3055;DHT22;1537;52.018;8.542;2023-04-03T20:23:03;4.20;85.90
3055;DHT22;1537;52.018;8.542;2023-04-03T20:26:29;4.20;87.10
3055;DHT22;1537;52.018;8.542;2023-04-03T20:29:53;4.10;87.50
3055;DHT22;1537;52.018;8.542;2023-04-03T20:33:18;4.10;88.60
3055;DHT22;1537;52.018;8.542;2023-04-03T20:36:42;4.10;89.20
3055;DHT22;1537;52.018;8.542;2023-04-03T20:40:11;4.00;89.30
3055;DHT22;1537;52.018;8.542;2023-04-03T20:43:35;4.00;89.70
3055;DHT22;1537;52.018;8.542;2023-04-03T20:46:59;3.90;90.20
3055;DHT22;1537;52.018;8.542;2023-04-03T20:50:25;3.80;90.20
3055;DHT22;1537;52.018;8.542;2023-04-03T20:53:49;3.80;90.50
3055;DHT22;1537;52.018;8.542;2023-04-03T20:57:13;3.70;90.60
3055;DHT22;1537;52.018;8.542;2023-04-03T21:00:36;3.70;90.70
3055;DHT22;1537;52.018;8.542;2023-04-03T21:04:07;3.60;90.70
3055;DHT22;1537;52.018;8.542;2023-04-03T21:19:14;3.40;91.40
3055;DHT22;1537;52.018;8.542;2023-04-03T21:22:38;3.40;91.70
3055;DHT22;1537;52.018;8.542;2023-04-03T21:26:05;3.40;91.70
3055;DHT22;1537;52.018;8.542;2023-04-03T21:29:28;3.40;91.60
3055;DHT22;1537;52.018;8.542;2023-04-03T21:32:53;3.30;91.40
3055;DHT22;1537;52.018;8.542;2023-04-03T21:36:19;3.30;91.40
3055;DHT22;1537;52.018;8.542;2023-04-03T21:39:43;3.20;91.10
3055;DHT22;1537;52.018;8.542;2023-04-03T21:43:07;3.20;91.40
3055;DHT22;1537;52.018;8.542;2023-04-03T21:46:30;3.20;92.40
3055;DHT22;1537;52.018;8.542;2023-04-03T21:49:54;3.10;92.40
3055;DHT22;1537;52.018;8.542;2023-04-03T21:53:19;3.10;92.50
3055;DHT22;1537;52.018;8.542;2023-04-03T21:56:44;3.00;93.20
3055;DHT22;1537;52.018;8.542;2023-04-03T22:00:10;3.00;93.30
3055;DHT22;1537;52.018;8.542;2023-04-03T22:03:36;2.90;93.60
3055;DHT22;1537;52.018;8.542;2023-04-03T22:07:00;2.90;93.90
3055;DHT22;1537;52.018;8.542;2023-04-03T22:10:26;2.90;93.80
3055;DHT22;1537;52.018;8.542;2023-04-03T22:13:51;2.80;93.80
3055;DHT22;1537;52.018;8.542;2023-04-03T22:17:15;2.80;94.10
3055;DHT22;1537;52.018;8.542;2023-04-03T22:20:42;2.80;94.40
3055;DHT22;1537;52.018;8.542;2023-04-03T22:24:07;2.70;94.60
3055;DHT22;1537;52.018;8.542;2023-04-03T22:27:32;2.70;94.90
3055;DHT22;1537;52.018;8.542;2023-04-03T22:30:57;2.70;95.70
3055;DHT22;1537;52.018;8.542;2023-04-03T22:34:22;2.60;95.70
3055;DHT22;1537;52.018;8.542;2023-04-03T22:37:46;2.40;96.30
3055;DHT22;1537;52.018;8.542;2023-04-03T22:41:10;2.30;96.60
3055;DHT22;1537;52.018;8.542;2023-04-03T22:44:35;2.20;96.50
3055;DHT22;1537;52.018;8.542;2023-04-03T22:47:59;2.30;96.70
3055;DHT22;1537;52.018;8.542;2023-04-03T22:51:23;2.20;96.70
3055;DHT22;1537;52.018;8.542;2023-04-03T22:54:47;2.30;96.80
3055;DHT22;1537;52.018;8.542;2023-04-03T22:58:10;2.30;96.80
3055;DHT22;1537;52.018;8.542;2023-04-03T23:01:36;2.30;96.90
3055;DHT22;1537;52.018;8.542;2023-04-03T23:05:02;2.30;96.90
3055;DHT22;1537;52.018;8.542;2023-04-03T23:08:26;2.20;97.00
3055;DHT22;1537;52.018;8.542;2023-04-03T23:11:51;2.20;97.40